Time;durP1;ratioP1;P1;durP2;ratioP2;P2;SDS_P1;SDS_P2;PMS_P1;PMS_P2;Temp;Humidity;BMP_temperature;BMP_pressure;BME280_temperature;BME280_humidity;BME280_pressure;Samples;Min_cycle;Max_cycle;Signal;HPM_P1;HPM_P2
2023/10/02 00:00:18;;;;;;;5.30;1.98;;;;;;;14.91;55.48;100627.00;7657457;32;39974;-82
2023/10/02 00:04:35;;;;;;;8.52;2.70;;;;;;;14.99;55.16;100624.50;7657552;32;38802;-82
2023/10/02 00:08:53;;;;;;;6.70;2.53;;;;;;;14.77;55.80;100624.03;7682003;32;37130;-81
2023/10/02 00:13:10;;;;;;;6.22;2.55;;;;;;;14.69;56.44;100627.34;7683633;32;39388;-82
2023/10/02 00:17:26;;;;;;;5.95;2.35;;;;;;;14.36;58.78;100626.84;7667778;32;40599;-81
2023/10/02 00:21:43;;;;;;;5.22;2.22;;;;;;;14.42;58.54;100623.00;7657254;32;38290;-81
2023/10/02 00:26:03;;;;;;;5.45;2.60;;;;;;;14.43;58.23;100621.91;7662755;32;37294;-81
2023/10/02 00:30:22;;;;;;;6.53;2.22;;;;;;;14.37;58.22;100604.62;7683493;32;39123;-81
2023/10/02 00:34:39;;;;;;;11.85;2.60;;;;;;;14.49;57.89;100608.97;7683344;32;40304;-81
2023/10/02 00:39:24;;;;;;;7.90;2.78;;;;;;;14.61;57.62;100609.56;7658384;32;37900;-81
2023/10/02 00:43:45;;;;;;;7.45;2.25;;;;;;;14.41;58.16;100607.63;7656762;32;37218;-81
2023/10/02 00:48:47;;;;;;;3.90;2.00;;;;;;;14.48;57.91;100605.44;7668814;32;40178;-82
2023/10/02 00:52:42;;;;;;;6.25;2.60;;;;;;;14.48;57.60;100601.88;7650265;32;40418;-81
2023/10/02 00:56:58;;;;;;;6.72;2.55;;;;;;;14.47;57.61;100614.78;7667616;32;37820;-81
2023/10/02 01:01:17;;;;;;;7.80;2.37;;;;;;;14.40;57.90;100606.81;7684367;32;38309;-81
2023/10/02 01:05:51;;;;;;;6.32;2.72;;;;;;;14.43;57.82;100608.19;7683264;32;39157;-82
2023/10/02 01:10:10;;;;;;;8.40;2.58;;;;;;;14.45;58.28;100605.97;7659753;32;39899;-81
2023/10/02 01:19:06;;;;;;;6.03;2.58;;;;;;;14.37;57.73;100601.06;7683658;32;37650;-81
2023/10/02 01:23:26;;;;;;;4.75;2.37;;;;;;;14.51;57.51;100615.84;7686016;32;39101;-81
2023/10/02 01:27:47;;;;;;;6.55;2.47;;;;;;;14.53;57.28;100605.41;7675207;32;39929;-79
2023/10/02 01:32:07;;;;;;;6.47;2.53;;;;;;;14.51;56.94;100604.88;7685485;32;37973;-81
2023/10/02 01:36:28;;;;;;;7.47;2.58;;;;;;;14.38;57.09;100603.50;7675260;32;37195;-81
2023/10/02 01:41:01;;;;;;;11.75;2.95;;;;;;;14.49;57.11;100617.22;7659255;32;39021;-81
2023/10/02 01:45:18;;;;;;;7.22;2.55;;;;;;;14.71;56.62;100614.16;7658977;32;40604;-80
2023/10/02 01:49:34;;;;;;;6.03;2.75;;;;;;;14.37;57.63;100614.78;7659026;32;37637;-81
2023/10/02 01:53:56;;;;;;;7.97;2.62;;;;;;;14.55;57.35;100619.66;7663832;32;37871;-81
2023/10/02 01:58:19;;;;;;;6.70;2.47;;;;;;;14.60;57.23;100616.13;7664228;32;40118;-79
2023/10/02 02:02:35;;;;;;;4.82;2.65;;;;;;;14.71;57.03;100616.91;7659004;32;40760;-81
2023/10/02 02:06:53;;;;;;;5.20;2.30;;;;;;;14.32;58.55;100621.09;7669954;32;38076;-80
2023/10/02 02:11:17;;;;;;;8.30;3.03;;;;;;;14.43;58.34;100622.72;7684742;32;37799;-81
2023/10/02 02:15:34;;;;;;;6.97;2.97;;;;;;;14.44;58.27;100615.31;7681030;32;40045;-82
2023/10/02 02:19:51;;;;;;;5.25;2.47;;;;;;;14.44;58.25;100620.81;7658671;32;40581;-80
2023/10/02 02:24:07;;;;;;;6.82;2.35;;;;;;;14.76;56.97;100616.91;7658589;32;37985;-81
2023/10/02 02:28:24;;;;;;;5.97;2.53;;;;;;;14.73;56.88;100628.44;7679864;32;37398;-81
2023/10/02 02:32:54;;;;;;;7.03;2.53;;;;;;;14.37;57.81;100628.50;7685123;32;40189;-81
2023/10/02 02:37:11;;;;;;;7.37;2.75;;;;;;;14.20;58.46;100631.53;7670383;32;40016;-81
2023/10/02 02:41:28;;;;;;;5.28;2.40;;;;;;;14.42;57.57;100623.81;7658499;32;38125;-81
2023/10/02 02:45:45;;;;;;;5.53;2.62;;;;;;;14.39;57.68;100626.31;7661619;32;37793;-81
2023/10/02 02:50:05;;;;;;;7.25;2.83;;;;;;;14.20;58.19;100626.87;7662731;32;39320;-81
2023/10/02 02:54:25;;;;;;;5.60;2.40;;;;;;;14.25;58.11;100635.09;7658816;32;39958;-81
2023/10/02 02:58:48;;;;;;;5.82;2.47;;;;;;;14.27;58.07;100638.38;7657395;32;38744;-81
2023/10/02 03:03:29;;;;;;;7.10;2.65;;;;;;;14.14;58.17;100640.84;7658423;32;37702;-81
2023/10/02 03:07:44;;;;;;;7.37;2.75;;;;;;;13.93;58.66;100645.53;7658438;32;39100;-80
2023/10/02 03:12:05;;;;;;;7.35;2.62;;;;;;;14.36;57.44;100654.28;7658618;32;40076;-80
2023/10/02 03:16:30;;;;;;;7.40;2.50;;;;;;;14.14;58.18;100638.13;7666548;32;38052;-81
2023/10/02 03:20:49;;;;;;;10.98;3.12;;;;;;;13.86;59.35;100649.34;7684995;32;37188;-79
2023/10/02 03:25:25;;;;;;;7.90;2.78;;;;;;;14.00;59.10;100646.06;7684403;32;40136;-80
2023/10/02 03:29:43;;;;;;;5.35;2.62;;;;;;;14.09;59.24;100649.94;7658505;32;40442;-80
2023/10/02 03:34:00;;;;;;;4.57;2.42;;;;;;;14.17;59.21;100643.87;7658379;32;37893;-81
2023/10/02 03:38:17;;;;;;;7.40;2.60;;;;;;;14.22;59.42;100640.31;7658394;32;38055;-78
2023/10/02 03:42:36;;;;;;;5.32;2.58;;;;;;;14.13;60.06;100645.53;7658155;32;40068;-81
2023/10/02 03:46:53;;;;;;;7.55;2.83;;;;;;;14.16;60.33;100647.72;7668999;32;39742;-80
2023/10/02 03:51:10;;;;;;;6.32;2.53;;;;;;;14.22;60.48;100635.62;7684412;32;38745;-80
2023/10/02 03:55:26;;;;;;;8.32;2.70;;;;;;;14.35;60.43;100636.16;7673449;32;37033;-80
2023/10/02 03:59:52;;;;;;;8.18;2.67;;;;;;;14.40;60.20;100625.19;7684478;32;40298;-79
2023/10/02 04:08:37;;;;;;;9.85;2.65;;;;;;;14.48;59.63;100635.59;7660665;32;37694;-80
2023/10/02 04:12:57;;;;;;;7.90;2.67;;;;;;;14.64;58.62;100631.78;7657814;32;37836;-82
2023/10/02 04:21:33;;;;;;;6.53;3.15;;;;;;;14.08;59.37;100642.78;7657521;32;40775;-81
2023/10/02 04:25:51;;;;;;;5.07;2.30;;;;;;;14.33;58.51;100649.34;7663116;32;37595;-81
2023/10/02 04:34:36;;;;;;;7.90;2.58;;;;;;;14.55;57.26;100652.59;7683097;32;39621;-81
2023/10/02 04:38:55;;;;;;;5.80;2.72;;;;;;;14.36;57.99;100657.03;7658345;32;39866;-80
2023/10/02 04:47:40;;;;;;;9.00;2.90;;;;;;;14.53;57.63;100664.97;7673938;32;37141;-79
2023/10/02 04:51:58;;;;;;;6.60;2.87;;;;;;;14.23;58.33;100670.19;7683385;32;39330;-80
2023/10/02 05:00:35;;;;;;;10.75;2.65;;;;;;;14.00;60.51;100685.25;7656633;32;38820;-81
2023/10/02 05:04:56;;;;;;;6.80;2.70;;;;;;;14.00;60.28;100693.47;7656658;32;37970;-81
2023/10/02 05:13:59;;;;;;;8.75;3.05;;;;;;;14.01;60.25;100694.31;7682538;32;40045;-80
2023/10/02 05:18:16;;;;;;;9.18;3.10;;;;;;;14.07;59.75;100706.94;7662039;32;37707;-81
2023/10/02 05:22:36;;;;;;;5.85;3.03;;;;;;;14.07;60.07;100713.25;7656120;32;37276;-80
2023/10/02 05:26:53;;;;;;;5.85;2.83;;;;;;;14.13;60.31;100716.81;7667453;32;39432;-80
2023/10/02 05:31:11;;;;;;;5.78;2.95;;;;;;;14.21;60.62;100713.53;7682131;32;39905;-81
2023/10/02 05:35:27;;;;;;;12.25;3.42;;;;;;;14.25;60.87;100724.78;7679503;32;38714;-80
2023/10/02 05:39:46;;;;;;;6.80;2.90;;;;;;;14.28;60.94;100725.06;7655744;32;37160;-80
2023/10/02 05:44:12;;;;;;;6.80;2.92;;;;;;;14.50;60.40;100723.12;7655643;32;39791;-80
2023/10/02 05:48:31;;;;;;;15.00;3.95;;;;;;;14.57;60.47;100721.75;7677635;32;41010;-78
2023/10/02 05:52:48;;;;;;;10.18;3.35;;;;;;;14.45;61.08;100723.94;7685837;32;37878;-81
2023/10/02 05:57:14;;;;;;;7.62;2.53;;;;;;;14.74;60.26;100720.66;7672602;32;37138;-79
2023/10/02 06:01:34;;;;;;;9.50;3.95;;;;;;;14.69;60.82;100728.91;7664329;32;39076;-79
2023/10/02 06:10:25;;;;;;;12.57;4.00;;;;;;;14.78;61.21;100743.69;7659360;32;38053;-81
2023/10/02 06:14:43;;;;;;;5.97;3.03;;;;;;;14.85;60.24;100741.53;7659350;32;38007;-82
2023/10/02 06:19:03;;;;;;;11.38;3.58;;;;;;;14.98;59.63;100745.59;7660063;32;39491;-85
2023/10/02 06:23:22;;;;;;;7.85;2.75;;;;;;;15.20;59.34;100753.50;7666847;32;40104;-80
2023/10/02 06:27:41;;;;;;;10.23;3.87;;;;;;;15.43;59.12;100749.28;7679495;32;38025;-77
2023/10/02 06:32:19;;;;;;;14.30;4.68;;;;;;;15.77;58.68;100743.94;7668807;32;37280;-75
2023/10/02 06:36:45;;;;;;;5.93;3.08;;;;;;;15.98;58.57;100752.06;7659096;32;39039;-71
2023/10/02 06:41:12;;;;;;;8.65;3.25;;;;;;;15.46;61.04;100747.94;7676574;32;40280;-71
2023/10/02 06:45:30;;;;;;;7.25;3.08;;;;;;;15.39;61.08;100754.53;7659061;32;38745;-80
2023/10/02 06:49:46;;;;;;;10.07;3.00;;;;;;;16.05;58.02;100747.06;7659141;32;37828;-80
2023/10/02 06:54:07;;;;;;;8.43;2.83;;;;;;;15.89;57.36;100759.28;7673033;32;39245;-79
2023/10/02 06:58:24;;;;;;;5.72;2.80;;;;;;;16.12;57.04;100766.84;7684971;32;40783;-79
2023/10/02 07:02:41;;;;;;;10.48;3.10;;;;;;;16.33;56.50;100769.44;7674955;32;37886;-79
2023/10/02 07:07:10;;;;;;;12.90;2.97;;;;;;;16.65;55.88;100757.91;7679928;32;37092;-80
2023/10/02 07:11:26;;;;;;;7.60;2.55;;;;;;;16.63;56.25;100762.06;7664276;32;39412;-80
2023/10/02 07:15:43;;;;;;;10.02;2.60;;;;;;;16.73;55.66;100769.41;7658691;32;39978;-85
2023/10/02 07:20:00;;;;;;;5.57;2.50;;;;;;;16.92;55.20;100761.25;7673815;32;38839;-79
2023/10/02 07:24:40;;;;;;;6.85;2.67;;;;;;;16.82;55.38;100757.47;7684940;32;37878;-78
2023/10/02 07:29:00;;;;;;;8.18;2.40;;;;;;;17.01;54.96;100759.53;7677794;32;39416;-78
2023/10/02 07:33:20;;;;;;;9.00;3.35;;;;;;;17.04;55.27;100764.44;7684578;32;40920;-69
2023/10/02 07:37:38;;;;;;;6.72;2.60;;;;;;;16.77;57.11;100762.22;7684360;32;37145;-79
2023/10/02 07:42:00;;;;;;;9.10;3.08;;;;;;;17.07;55.60;100766.63;7677445;32;36802;-79
2023/10/02 07:46:21;;;;;;;5.10;2.10;;;;;;;17.07;56.01;100774.88;7670112;32;40199;-79
2023/10/02 07:50:39;;;;;;;10.80;2.83;;;;;;;17.55;54.20;100772.13;7667973;32;40020;-79
2023/10/02 07:54:59;;;;;;;8.15;2.55;;;;;;;17.80;54.99;100775.69;7674042;32;38524;-80
2023/10/02 07:59:18;;;;;;;11.30;2.85;;;;;;;17.65;54.48;100785.78;7661959;32;37150;-79
2023/10/02 08:03:43;;;;;;;11.00;3.10;;;;;;;18.36;53.22;100783.16;7657825;32;40182;-79
2023/10/02 08:08:08;;;;;;;10.77;2.58;;;;;;;18.73;52.63;100769.59;7657813;32;40905;-79
2023/10/02 08:12:34;;;;;;;9.73;2.70;;;;;;;18.87;51.24;100769.69;7656832;32;38841;-80
2023/10/02 08:16:59;;;;;;;4.60;2.53;;;;;;;18.97;50.84;100768.66;7658088;32;37317;-80
2023/10/02 08:21:16;;;;;;;3.45;2.10;;;;;;;18.91;50.65;100765.97;7657605;32;39302;-80
2023/10/02 08:25:34;;;;;;;5.68;2.35;;;;;;;19.33;50.96;100752.19;7654763;32;39615;-80
2023/10/02 08:29:52;;;;;;;7.53;2.35;;;;;;;18.93;50.75;100763.72;7655027;32;36482;-73
2023/10/02 08:34:26;;;;;;;5.90;2.45;;;;;;;19.50;50.85;100766.22;7656838;32;37078;-77
2023/10/02 08:38:49;;;;;;;9.48;3.28;;;;;;;19.77;49.70;100759.06;7656392;32;40251;-77
2023/10/02 08:43:10;;;;;;;9.05;2.47;;;;;;;20.40;45.98;100760.09;7656503;32;40797;-78
2023/10/02 08:47:27;;;;;;;8.90;2.60;;;;;;;20.66;43.63;100761.44;7656057;32;38529;-78
2023/10/02 08:51:50;;;;;;;4.82;1.75;;;;;;;20.97;43.50;100753.13;7656475;32;38289;-77
2023/10/02 08:56:22;;;;;;;5.37;2.47;;;;;;;20.86;44.36;100760.91;7656232;32;39107;-77
2023/10/02 09:00:38;;;;;;;6.15;2.37;;;;;;;21.09;42.34;100758.87;7656096;32;40721;-76
2023/10/02 09:05:13;;;;;;;8.13;2.45;;;;;;;21.42;42.00;100749.37;7655812;32;37744;-77
2023/10/02 09:14:22;;;;;;;7.97;2.83;;;;;;;21.88;39.79;100750.81;7655904;32;40084;-78
2023/10/02 09:23:22;;;;;;;4.03;2.28;;;;;;;22.07;41.09;100743.00;7658617;32;38938;-78
2023/10/02 09:28:22;;;;;;;6.60;2.65;;;;;;;21.76;40.95;100737.59;7658079;32;37838;-78
2023/10/02 09:32:47;;;;;;;8.77;2.22;;;;;;;22.36;40.07;100729.63;7659233;32;39411;-78
2023/10/02 09:37:11;;;;;;;11.38;2.67;;;;;;;22.77;39.26;100728.25;7659393;32;40427;-79
2023/10/02 09:41:49;;;;;;;5.40;2.42;;;;;;;22.68;37.07;100722.72;7658297;32;38251;-79
2023/10/02 09:46:06;;;;;;;9.15;2.25;;;;;;;22.69;36.62;100719.56;7659431;32;37303;-80
2023/10/02 09:50:25;;;;;;;4.65;2.00;;;;;;;23.20;37.42;100705.03;7658625;32;39330;-79
2023/10/02 09:54:51;;;;;;;10.85;2.33;;;;;;;23.15;35.92;100711.59;7657795;32;38855;-80
2023/10/02 09:59:19;;;;;;;7.40;2.40;;;;;;;23.09;35.39;100709.31;7657424;32;38139;-80
2023/10/02 10:03:59;;;;;;;4.95;1.98;;;;;;;23.73;34.07;100711.06;7658744;32;37204;-80
2023/10/02 10:12:50;;;;;;;7.70;2.35;;;;;;;24.19;34.77;100706.47;7658468;32;40832;-79
2023/10/02 10:17:21;;;;;;;7.25;2.37;;;;;;;24.80;32.75;100702.25;7658436;32;38803;-78
2023/10/02 10:21:58;;;;;;;8.23;2.47;;;;;;;24.66;33.62;100702.56;7658810;32;37851;-79
2023/10/02 10:26:37;;;;;;;3.85;2.12;;;;;;;25.02;32.65;100692.62;7658676;32;40000;-79
2023/10/02 10:30:56;;;;;;;6.43;2.30;;;;;;;25.36;32.53;100693.38;7658426;32;39967;-79
2023/10/02 10:35:33;;;;;;;5.97;1.98;;;;;;;25.91;31.12;100689.06;7656539;32;38723;-79
2023/10/02 10:39:54;;;;;;;4.87;2.00;;;;;;;25.74;29.73;100683.75;7658351;32;37949;-79
2023/10/02 10:44:15;;;;;;;8.20;2.05;;;;;;;25.47;30.95;100686.97;7657220;32;39181;-78
2023/10/02 10:48:33;;;;;;;5.15;2.20;;;;;;;25.58;30.54;100686.47;7657591;32;40842;-68
2023/10/02 10:52:49;;;;;;;9.50;2.50;;;;;;;26.60;30.50;100675.81;7658786;32;38718;-78
2023/10/02 10:57:27;;;;;;;5.62;2.10;;;;;;;27.00;28.76;100670.44;7658802;32;37963;-79
2023/10/02 11:02:09;;;;;;;5.10;2.15;;;;;;;27.15;28.76;100661.22;7658689;32;40076;-79
2023/10/02 11:06:26;;;;;;;7.10;2.07;;;;;;;27.27;26.64;100663.91;7658729;32;39913;-79
2023/10/02 11:10:42;;;;;;;7.47;2.20;;;;;;;27.60;27.00;100647.84;7658452;32;37646;-80
2023/10/02 11:14:59;;;;;;;7.03;2.42;;;;;;;27.33;26.91;100644.84;7657124;32;37371;-78
2023/10/02 11:23:41;;;;;;;4.93;2.12;;;;;;;27.39;27.21;100640.59;7658482;32;40641;-78
2023/10/02 11:27:58;;;;;;;4.78;1.92;;;;;;;27.80;26.81;100631.84;7657633;32;38563;-79
2023/10/02 11:32:23;;;;;;;6.85;2.05;;;;;;;27.77;26.47;100625.00;7657132;32;37692;-79
2023/10/02 11:36:52;;;;;;;5.05;1.70;;;;;;;27.30;26.87;100629.63;7657791;32;39515;-79
2023/10/02 11:41:09;;;;;;;6.18;2.12;;;;;;;28.04;26.31;100623.16;7657199;32;40019;-79
2023/10/02 11:45:33;;;;;;;4.20;2.03;;;;;;;27.70;26.75;100614.47;7656857;32;38080;-80
2023/10/02 11:49:50;;;;;;;4.40;1.83;;;;;;;27.49;27.43;100614.00;7658256;32;37244;-79
2023/10/02 11:54:09;;;;;;;6.43;1.83;;;;;;;26.96;27.76;100609.59;7658089;32;39183;-79
2023/10/02 11:58:25;;;;;;;6.22;2.10;;;;;;;26.88;27.38;100601.41;7656852;32;40759;-80
2023/10/02 12:02:45;;;;;;;4.72;1.90;;;;;;;27.58;26.89;100609.00;7657828;32;38235;-80
2023/10/02 12:07:02;;;;;;;3.83;1.75;;;;;;;28.00;26.15;100599.87;7658067;32;37025;-80
2023/10/02 12:11:18;;;;;;;13.48;2.12;;;;;;;28.29;26.48;100595.59;7657992;32;39413;-79
2023/10/02 12:15:35;;;;;;;5.80;2.10;;;;;;;28.53;25.76;100590.81;7657802;32;40691;-80
2023/10/02 12:19:51;;;;;;;5.10;2.00;;;;;;;28.71;24.78;100582.69;7657729;32;38096;-78
2023/10/02 12:24:08;;;;;;;4.05;1.87;;;;;;;28.21;25.82;100582.63;7657548;32;37086;-78
2023/10/02 12:28:25;;;;;;;8.13;1.67;;;;;;;28.18;25.60;100574.16;7657601;32;39315;-78
2023/10/02 12:32:41;;;;;;;4.00;1.58;;;;;;;28.81;25.66;100568.03;7657499;32;40802;-78
2023/10/02 12:36:58;;;;;;;7.70;1.90;;;;;;;28.68;24.91;100566.63;7657167;32;38018;-78
2023/10/02 12:41:17;;;;;;;5.07;1.80;;;;;;;28.71;24.81;100565.06;7657302;32;37880;-80
2023/10/02 12:45:36;;;;;;;6.78;1.98;;;;;;;29.04;25.45;100555.94;7655954;32;39133;-80
2023/10/02 12:49:54;;;;;;;3.95;1.65;;;;;;;29.52;24.81;100559.00;7657088;32;39672;-78
2023/10/02 12:54:11;;;;;;;4.28;1.62;;;;;;;29.88;24.20;100555.81;7656908;32;37810;-79
2023/10/02 12:58:28;;;;;;;4.07;1.45;;;;;;;29.96;24.77;100549.88;7659464;32;37882;-78
2023/10/02 13:02:44;;;;;;;3.78;1.48;;;;;;;29.36;24.67;100544.38;7660230;32;39925;-80
2023/10/02 13:07:05;;;;;;;3.90;1.80;;;;;;;28.62;25.85;100540.09;7660108;32;41030;-80
2023/10/02 13:11:24;;;;;;;5.32;1.62;;;;;;;28.63;25.76;100539.72;7660010;32;38111;-80
2023/10/02 13:15:40;;;;;;;3.08;1.77;;;;;;;28.86;25.80;100538.06;7660109;32;36034;-80
2023/10/02 13:19:57;;;;;;;4.18;1.65;;;;;;;28.54;26.41;100533.50;7659919;32;40034;-80
2023/10/02 13:24:17;;;;;;;3.80;1.62;;;;;;;29.18;26.19;100516.88;7659844;32;40755;-81
2023/10/02 13:28:34;;;;;;;3.25;1.73;;;;;;;28.73;26.00;100515.81;7660267;32;36257;-80
2023/10/02 13:32:51;;;;;;;3.80;1.60;;;;;;;28.98;26.23;100509.75;7659997;32;37651;-80
2023/10/02 13:37:07;;;;;;;6.90;1.90;;;;;;;29.62;25.14;100504.13;7659857;32;39429;-80
2023/10/02 13:41:25;;;;;;;2.70;1.35;;;;;;;28.89;26.13;100509.22;7659877;32;40090;-80
2023/10/02 13:45:45;;;;;;;3.83;1.77;;;;;;;29.11;25.71;100504.69;7658379;32;37907;-80
2023/10/02 13:50:02;;;;;;;5.78;1.70;;;;;;;29.68;25.69;100504.59;7659631;32;37074;-80
2023/10/02 13:54:18;;;;;;;5.15;1.58;;;;;;;30.06;25.12;100499.78;7659392;32;40111;-78
2023/10/02 13:58:36;;;;;;;6.45;1.50;;;;;;;30.28;24.73;100495.94;7659493;32;40645;-81
2023/10/02 14:02:54;;;;;;;3.03;1.70;;;;;;;30.29;24.98;100493.97;7659150;32;37744;-82
2023/10/02 14:07:12;;;;;;;3.53;1.75;;;;;;;30.64;24.30;100487.78;7657462;32;37312;-82
2023/10/02 14:11:28;;;;;;;3.58;1.67;;;;;;;30.29;24.73;100494.75;7659427;32;38990;-82
2023/10/02 14:15:46;;;;;;;3.35;1.60;;;;;;;30.44;24.57;100483.63;7659220;32;39988;-82
2023/10/02 14:20:08;;;;;;;6.70;1.85;;;;;;;29.93;24.58;100483.19;7659084;32;38728;-83
2023/10/02 14:24:24;;;;;;;;;;;;;;;29.80;25.55;100479.06;7665961;32;36689;-83
2023/10/02 14:28:41;;;;;;;4.43;1.85;;;;;;;29.41;26.92;100485.06;7669716;32;40230;-82
2023/10/02 14:33:00;;;;;;;3.92;1.62;;;;;;;30.08;26.27;100475.72;7669054;32;41012;-82
2023/10/02 14:37:17;;;;;;;3.12;1.50;;;;;;;29.74;25.81;100478.56;7676700;32;38043;-83
2023/10/02 14:41:34;;;;;;;3.20;1.52;;;;;;;30.50;25.11;100465.22;7676726;32;36582;-83
2023/10/02 14:45:53;;;;;;;4.95;1.50;;;;;;;30.93;24.93;100459.03;7683641;32;39356;-81
2023/10/02 14:50:15;;;;;;;5.25;1.83;;;;;;;31.13;24.38;100462.34;7684950;32;39904;-81
2023/10/02 14:54:33;;;;;;;6.32;1.65;;;;;;;30.70;25.01;100458.09;7684970;32;37701;-81
2023/10/02 14:58:50;;;;;;;5.40;1.55;;;;;;;30.91;24.87;100459.41;7684995;32;37213;-82
2023/10/02 15:03:14;;;;;;;4.57;2.00;;;;;;;30.34;25.82;100466.28;7685082;32;39868;-82
2023/10/02 15:07:31;;;;;;;4.15;1.80;;;;;;;30.34;25.57;100471.91;7683712;32;40853;-83
2023/10/02 15:11:48;;;;;;;4.37;2.08;;;;;;;30.63;25.56;100463.69;7684821;32;38074;-84
2023/10/02 15:16:11;;;;;;;6.07;2.10;;;;;;;30.32;26.53;100468.69;7684916;32;36825;-83
2023/10/02 15:20:32;;;;;;;8.38;2.17;;;;;;;30.48;25.96;100461.97;7683534;32;39020;-83
2023/10/02 15:24:48;;;;;;;5.20;2.00;;;;;;;30.36;26.33;100459.50;7670261;32;435944;-83
2023/10/02 15:29:06;;;;;;;6.07;1.80;;;;;;;30.18;26.62;100460.13;7684545;32;38642;-83
2023/10/02 15:33:22;;;;;;;5.80;1.98;;;;;;;30.11;27.54;100460.06;7684721;32;37229;-81
2023/10/02 15:37:39;;;;;;;4.43;1.65;;;;;;;29.86;28.53;100455.03;7684486;32;39509;-83
2023/10/02 15:41:56;;;;;;;4.07;1.67;;;;;;;29.67;28.93;100460.84;7679056;32;40091;-78
2023/10/02 15:46:13;;;;;;;6.37;1.90;;;;;;;29.89;28.61;100453.44;7671934;32;37734;-82
2023/10/02 15:50:30;;;;;;;4.40;1.85;;;;;;;29.65;27.70;100457.59;7682691;32;37170;-81
2023/10/02 15:54:46;;;;;;;3.90;1.58;;;;;;;29.23;28.43;100461.56;7683490;32;39151;-82
2023/10/02 15:59:06;;;;;;;7.57;2.25;;;;;;;29.02;29.32;100471.31;7683615;32;40893;-81
2023/10/02 16:03:26;;;;;;;8.32;2.47;;;;;;;28.46;30.71;100470.09;7684104;32;38703;-81
2023/10/02 16:07:49;;;;;;;7.70;2.08;;;;;;;28.26;31.70;100475.00;7683285;32;37822;-82
2023/10/02 16:12:06;;;;;;;6.43;2.22;;;;;;;28.76;30.87;100478.56;7684006;32;40115;-83
2023/10/02 16:16:24;;;;;;;5.07;1.92;;;;;;;28.86;30.04;100481.94;7683115;32;39562;-82
2023/10/02 16:20:42;;;;;;;6.12;2.00;;;;;;;28.26;30.50;100480.59;7683340;32;37661;-81
2023/10/02 16:25:02;;;;;;;3.87;1.87;;;;;;;27.52;31.86;100484.47;7683569;32;37811;-81
2023/10/02 16:29:20;;;;;;;6.47;2.08;;;;;;;26.77;34.50;100494.87;7683040;32;40073;-83
2023/10/02 16:33:38;;;;;;;5.30;1.83;;;;;;;26.20;35.95;100495.09;7681574;32;39726;-82
2023/10/02 16:37:59;;;;;;;5.10;2.03;;;;;;;25.97;36.33;100496.91;7682401;32;37104;-82
2023/10/02 16:42:16;;;;;;;18.45;3.37;;;;;;;25.37;37.40;100496.84;7683681;32;37809;-81
2023/10/02 16:46:33;;;;;;;12.30;2.80;;;;;;;25.08;37.54;100507.94;7680981;32;39907;-82
2023/10/02 16:50:50;;;;;;;6.37;2.28;;;;;;;24.69;38.08;100509.53;7682852;32;40774;-81
2023/10/02 16:55:08;;;;;;;5.95;2.30;;;;;;;24.44;38.22;100512.31;7682760;32;37658;-82
2023/10/02 16:59:27;;;;;;;4.10;2.08;;;;;;;24.16;39.15;100503.81;7682239;32;37002;-81
2023/10/02 17:03:45;;;;;;;5.45;2.35;;;;;;;23.84;39.27;100506.31;7682928;32;40212;-80
2023/10/02 17:08:01;;;;;;;4.18;1.95;;;;;;;23.56;40.11;100506.91;7681874;32;40782;-83
2023/10/02 17:12:18;;;;;;;4.82;2.35;;;;;;;23.54;40.59;100512.00;7682266;32;37918;-83
2023/10/02 17:16:36;;;;;;;4.32;2.12;;;;;;;23.29;41.72;100513.06;7682361;32;37025;-82
2023/10/02 17:20:52;;;;;;;5.60;2.47;;;;;;;23.01;42.02;100519.13;7681901;32;40008;-82
2023/10/02 17:25:28;;;;;;;9.45;2.37;;;;;;;22.92;42.32;100521.13;7682053;32;40880;-80
2023/10/02 17:29:45;;;;;;;4.55;2.30;;;;;;;22.73;42.52;100516.03;7681491;32;38073;-80
2023/10/02 17:34:02;;;;;;;5.57;2.60;;;;;;;22.61;43.04;100517.59;7682180;32;37831;-81
2023/10/02 17:38:19;;;;;;;6.93;2.10;;;;;;;22.45;42.87;100517.31;7680866;32;39404;-81
2023/10/02 17:42:35;;;;;;;9.57;2.80;;;;;;;22.35;43.02;100520.47;7683037;32;40734;-82
2023/10/02 17:46:52;;;;;;;7.47;2.30;;;;;;;22.25;43.09;100520.81;7685243;32;38876;-79
2023/10/02 17:51:08;;;;;;;6.40;2.62;;;;;;;22.27;43.53;100524.91;7684898;32;37100;-78
2023/10/02 17:55:25;;;;;;;7.60;2.53;;;;;;;22.02;44.23;100534.94;7684584;32;39893;-78
2023/10/02 17:59:42;;;;;;;9.88;3.00;;;;;;;21.90;44.38;100532.03;7685848;32;40011;-80
2023/10/02 18:03:58;;;;;;;9.45;2.80;;;;;;;21.80;44.52;100537.94;7685718;32;38063;-80
2023/10/02 18:08:14;;;;;;;6.82;2.60;;;;;;;21.68;44.36;100536.66;7685872;32;36812;-81
2023/10/02 18:12:31;;;;;;;7.82;2.50;;;;;;;21.73;44.06;100543.97;7685657;32;40057;-79
2023/10/02 18:16:52;;;;;;;6.25;2.58;;;;;;;21.57;44.43;100543.66;7685733;32;39735;-81
2023/10/02 18:21:10;;;;;;;10.73;2.90;;;;;;;21.47;44.72;100546.78;7685494;32;37703;-81
2023/10/02 18:25:27;;;;;;;6.15;2.47;;;;;;;21.41;45.07;100548.06;7685535;32;38475;-79
2023/10/02 18:29:46;;;;;;;8.75;3.65;;;;;;;21.41;45.07;100559.16;7685571;32;38792;-80
2023/10/02 18:34:03;;;;;;;8.63;3.10;;;;;;;21.10;45.73;100560.13;7685282;32;39894;-80
2023/10/02 18:38:22;;;;;;;10.15;3.37;;;;;;;21.15;45.25;100559.97;7685054;32;38712;-81
2023/10/02 18:42:40;;;;;;;5.55;3.12;;;;;;;21.04;45.20;100556.69;7685355;32;37121;-81
2023/10/02 18:46:59;;;;;;;7.65;3.20;;;;;;;20.93;45.46;100556.16;7685314;32;39480;-81
2023/10/02 18:51:18;;;;;;;7.40;2.70;;;;;;;20.80;45.92;100562.69;7680094;32;38892;-79
2023/10/02 18:55:35;;;;;;;6.50;3.10;;;;;;;20.75;46.15;100563.63;7669028;32;38034;-81
2023/10/02 18:59:52;;;;;;;7.65;3.03;;;;;;;20.79;46.15;100561.84;7670325;32;37814;-81
2023/10/02 19:04:08;;;;;;;8.85;3.20;;;;;;;20.72;46.52;100572.59;7670249;32;39324;-81
2023/10/02 19:08:26;;;;;;;9.95;3.30;;;;;;;20.87;46.12;100568.56;7672284;32;40549;-81
2023/10/02 19:12:42;;;;;;;9.82;3.22;;;;;;;20.65;46.78;100565.87;7680520;32;38743;-81
2023/10/02 19:16:59;;;;;;;8.13;3.03;;;;;;;20.49;47.11;100563.53;7685035;32;37703;-80
2023/10/02 19:21:15;;;;;;;8.10;2.78;;;;;;;20.38;47.37;100562.97;7684371;32;40240;-81
2023/10/02 19:25:31;;;;;;;11.00;3.30;;;;;;;20.23;47.48;100560.62;7684784;32;39896;-81
2023/10/02 19:29:48;;;;;;;5.15;2.72;;;;;;;20.09;47.70;100560.72;7666161;32;38061;-80
2023/10/02 19:34:05;;;;;;;6.35;2.70;;;;;;;20.15;47.75;100562.22;7653572;32;36731;-79
2023/10/02 19:38:30;;;;;;;8.95;3.60;;;;;;;20.01;48.09;100567.84;7656327;32;40130;-79
2023/10/02 19:42:49;;;;;;;10.45;3.50;;;;;;;20.13;48.23;100569.19;7665435;32;40841;-80
2023/10/02 19:47:09;;;;;;;9.75;3.50;;;;;;;19.85;49.05;100567.41;7674850;32;38557;-80
2023/10/02 19:51:27;;;;;;;7.25;3.12;;;;;;;19.66;49.48;100564.81;7669279;32;35898;-80
2023/10/02 19:55:45;;;;;;;7.85;3.50;;;;;;;19.64;49.61;100563.47;7664592;32;39528;-80
2023/10/02 20:00:05;;;;;;;10.35;3.67;;;;;;;19.68;49.63;100559.78;7659786;32;40807;-81
2023/10/02 20:04:25;;;;;;;10.82;3.70;;;;;;;19.63;50.37;100561.88;7664639;32;38020;-80
2023/10/02 20:08:42;;;;;;;11.45;3.67;;;;;;;19.61;50.53;100562.19;7668137;32;37221;-80
2023/10/02 20:12:59;;;;;;;8.00;3.60;;;;;;;19.45;51.18;100564.47;7668070;32;39004;-81
2023/10/02 20:17:15;;;;;;;9.52;3.92;;;;;;;19.60;50.97;100559.72;7668383;32;40927;-81
2023/10/02 20:21:33;;;;;;;7.25;3.45;;;;;;;19.35;51.46;100561.12;7668772;32;38134;-80
2023/10/02 20:25:52;;;;;;;9.63;3.47;;;;;;;19.20;51.57;100568.66;7669419;32;37861;-80
2023/10/02 20:30:15;;;;;;;10.48;4.10;;;;;;;19.21;51.27;100570.28;7668534;32;38957;-79
2023/10/02 20:34:32;;;;;;;11.68;4.12;;;;;;;18.94;52.30;100582.22;7672207;32;40131;-79
2023/10/02 20:38:53;;;;;;;12.65;4.18;;;;;;;18.96;51.99;100579.97;7671692;32;39386;-80
2023/10/02 20:43:11;;;;;;;11.12;3.72;;;;;;;18.98;51.96;100580.47;7668286;32;36951;-79
2023/10/02 20:47:29;;;;;;;10.73;4.15;;;;;;;18.98;52.36;100587.94;7666449;32;39101;-80
2023/10/02 20:51:46;;;;;;;8.52;3.92;;;;;;;18.88;52.76;100586.19;7668358;32;39650;-81
2023/10/02 20:56:03;;;;;;;8.82;3.65;;;;;;;18.95;52.83;100589.37;7667224;32;37878;-81
2023/10/02 21:00:19;;;;;;;8.27;3.75;;;;;;;18.67;52.98;100591.31;7669088;32;37719;-80